sensor_id;sensor_type;location;lat;lon;timestamp;temperature;humidity
11569;DHT22;5840;46.894;15.542;2022-07-18T00:00:32;17.40;99.90
11569;DHT22;5840;46.894;15.542;2022-07-18T00:02:59;17.40;99.90
11569;DHT22;5840;46.894;15.542;2022-07-18T00:05:27;17.40;99.90
11569;DHT22;5840;46.894;15.542;2022-07-18T00:07:54;17.40;99.90
11569;DHT22;5840;46.894;15.542;2022-07-18T00:10:21;17.40;99.90
11569;DHT22;5840;46.894;15.542;2022-07-18T00:12:48;17.40;99.90
11569;DHT22;5840;46.894;15.542;2022-07-18T00:15:15;17.40;99.90
11569;DHT22;5840;46.894;15.542;2022-07-18T00:17:42;17.40;99.90
11569;DHT22;5840;46.894;15.542;2022-07-18T00:20:10;17.40;99.90
11569;DHT22;5840;46.894;15.542;2022-07-18T00:22:39;17.30;99.90
11569;DHT22;5840;46.894;15.542;2022-07-18T00:25:06;17.30;99.90
11569;DHT22;5840;46.894;15.542;2022-07-18T00:27:33;17.30;99.90
11569;DHT22;5840;46.894;15.542;2022-07-18T00:30:00;17.20;99.90
11569;DHT22;5840;46.894;15.542;2022-07-18T00:32:27;17.20;99.90
11569;DHT22;5840;46.894;15.542;2022-07-18T00:34:54;17.20;99.90
11569;DHT22;5840;46.894;15.542;2022-07-18T00:37:21;17.20;99.90
11569;DHT22;5840;46.894;15.542;2022-07-18T00:39:49;17.20;99.90
11569;DHT22;5840;46.894;15.542;2022-07-18T00:42:16;17.20;99.90
11569;DHT22;5840;46.894;15.542;2022-07-18T00:44:43;17.10;99.90
11569;DHT22;5840;46.894;15.542;2022-07-18T00:47:10;17.10;99.90
11569;DHT22;5840;46.894;15.542;2022-07-18T00:49:37;17.00;99.90
11569;DHT22;5840;46.894;15.542;2022-07-18T00:52:04;17.00;99.90
11569;DHT22;5840;46.894;15.542;2022-07-18T00:54:31;16.90;99.90
11569;DHT22;5840;46.894;15.542;2022-07-18T00:57:00;16.90;99.90
11569;DHT22;5840;46.894;15.542;2022-07-18T00:59:27;16.80;99.90
11569;DHT22;5840;46.894;15.542;2022-07-18T01:02:14;16.80;99.90
11569;DHT22;5840;46.894;15.542;2022-07-18T01:04:40;16.60;99.90
11569;DHT22;5840;46.894;15.542;2022-07-18T01:07:07;16.60;99.90
11569;DHT22;5840;46.894;15.542;2022-07-18T01:09:34;16.50;99.90
11569;DHT22;5840;46.894;15.542;2022-07-18T01:12:04;16.50;99.90
11569;DHT22;5840;46.894;15.542;2022-07-18T01:14:32;16.50;99.90
11569;DHT22;5840;46.894;15.542;2022-07-18T01:16:59;16.40;99.90
11569;DHT22;5840;46.894;15.542;2022-07-18T01:19:26;16.40;99.90
11569;DHT22;5840;46.894;15.542;2022-07-18T01:21:54;16.30;99.90
11569;DHT22;5840;46.894;15.542;2022-07-18T01:24:21;16.30;99.90
11569;DHT22;5840;46.894;15.542;2022-07-18T01:26:47;16.30;99.90
11569;DHT22;5840;46.894;15.542;2022-07-18T01:29:14;16.30;99.90
11569;DHT22;5840;46.894;15.542;2022-07-18T01:31:41;16.30;99.90
11569;DHT22;5840;46.894;15.542;2022-07-18T01:34:08;16.30;99.90
11569;DHT22;5840;46.894;15.542;2022-07-18T01:36:35;16.30;99.90
11569;DHT22;5840;46.894;15.542;2022-07-18T01:39:03;16.30;99.90
11569;DHT22;5840;46.894;15.542;2022-07-18T01:41:30;16.20;99.90
11569;DHT22;5840;46.894;15.542;2022-07-18T01:43:57;16.20;99.90
11569;DHT22;5840;46.894;15.542;2022-07-18T01:46:24;16.20;99.90
11569;DHT22;5840;46.894;15.542;2022-07-18T01:48:50;16.20;99.90
11569;DHT22;5840;46.894;15.542;2022-07-18T01:51:17;16.20;99.90
11569;DHT22;5840;46.894;15.542;2022-07-18T01:53:54;16.10;99.90
11569;DHT22;5840;46.894;15.542;2022-07-18T01:56:22;16.10;99.90
11569;DHT22;5840;46.894;15.542;2022-07-18T01:58:49;16.10;99.90
11569;DHT22;5840;46.894;15.542;2022-07-18T02:01:16;16.00;99.90
11569;DHT22;5840;46.894;15.542;2022-07-18T02:03:43;16.00;99.90
11569;DHT22;5840;46.894;15.542;2022-07-18T02:06:10;16.00;99.90
11569;DHT22;5840;46.894;15.542;2022-07-18T02:08:37;15.90;99.90
11569;DHT22;5840;46.894;15.542;2022-07-18T02:11:04;15.90;99.90
11569;DHT22;5840;46.894;15.542;2022-07-18T02:13:32;15.90;99.90
11569;DHT22;5840;46.894;15.542;2022-07-18T02:15:59;15.80;99.90
11569;DHT22;5840;46.894;15.542;2022-07-18T02:18:26;15.80;99.90
11569;DHT22;5840;46.894;15.542;2022-07-18T02:20:57;15.80;99.90
11569;DHT22;5840;46.894;15.542;2022-07-18T02:23:24;15.80;99.90
11569;DHT22;5840;46.894;15.542;2022-07-18T02:25:51;15.80;99.90
11569;DHT22;5840;46.894;15.542;2022-07-18T02:28:18;15.80;99.90
11569;DHT22;5840;46.894;15.542;2022-07-18T02:30:47;15.80;99.90
11569;DHT22;5840;46.894;15.542;2022-07-18T02:33:15;15.70;99.90
11569;DHT22;5840;46.894;15.542;2022-07-18T02:35:42;15.70;99.90
11569;DHT22;5840;46.894;15.542;2022-07-18T02:38:09;15.70;99.90
11569;DHT22;5840;46.894;15.542;2022-07-18T02:40:36;15.70;99.90
11569;DHT22;5840;46.894;15.542;2022-07-18T02:43:03;15.60;99.90
11569;DHT22;5840;46.894;15.542;2022-07-18T02:45:30;15.60;99.90
11569;DHT22;5840;46.894;15.542;2022-07-18T02:47:59;15.60;99.90
11569;DHT22;5840;46.894;15.542;2022-07-18T02:50:26;15.60;99.90
11569;DHT22;5840;46.894;15.542;2022-07-18T02:52:53;15.60;99.90
11569;DHT22;5840;46.894;15.542;2022-07-18T02:55:22;15.60;99.90
11569;DHT22;5840;46.894;15.542;2022-07-18T02:57:50;15.60;99.90
11569;DHT22;5840;46.894;15.542;2022-07-18T03:00:17;15.60;99.90
11569;DHT22;5840;46.894;15.542;2022-07-18T03:02:45;15.60;99.90
11569;DHT22;5840;46.894;15.542;2022-07-18T03:05:13;15.60;99.90
11569;DHT22;5840;46.894;15.542;2022-07-18T03:07:40;15.60;99.90
11569;DHT22;5840;46.894;15.542;2022-07-18T03:10:08;15.60;99.90
11569;DHT22;5840;46.894;15.542;2022-07-18T03:12:35;15.60;99.90
11569;DHT22;5840;46.894;15.542;2022-07-18T03:15:02;15.60;99.90
11569;DHT22;5840;46.894;15.542;2022-07-18T03:17:29;15.50;99.90
11569;DHT22;5840;46.894;15.542;2022-07-18T03:19:57;15.50;99.90
11569;DHT22;5840;46.894;15.542;2022-07-18T03:22:25;15.50;99.90
11569;DHT22;5840;46.894;15.542;2022-07-18T03:24:52;15.50;99.90
11569;DHT22;5840;46.894;15.542;2022-07-18T03:27:19;15.50;99.90
11569;DHT22;5840;46.894;15.542;2022-07-18T03:29:45;15.40;99.90
11569;DHT22;5840;46.894;15.542;2022-07-18T03:32:12;15.40;99.90
11569;DHT22;5840;46.894;15.542;2022-07-18T03:34:39;15.30;99.90
11569;DHT22;5840;46.894;15.542;2022-07-18T03:37:06;15.30;99.90
11569;DHT22;5840;46.894;15.542;2022-07-18T03:39:35;15.30;99.90
11569;DHT22;5840;46.894;15.542;2022-07-18T03:42:02;15.30;99.90
11569;DHT22;5840;46.894;15.542;2022-07-18T03:44:29;15.30;99.90
11569;DHT22;5840;46.894;15.542;2022-07-18T03:46:56;15.30;99.90
11569;DHT22;5840;46.894;15.542;2022-07-18T03:49:23;15.30;99.90
11569;DHT22;5840;46.894;15.542;2022-07-18T03:51:50;15.30;99.90
11569;DHT22;5840;46.894;15.542;2022-07-18T03:54:17;15.20;99.90
11569;DHT22;5840;46.894;15.542;2022-07-18T03:56:45;15.20;99.90
11569;DHT22;5840;46.894;15.542;2022-07-18T03:59:12;15.20;99.90
11569;DHT22;5840;46.894;15.542;2022-07-18T04:01:39;15.20;99.90
11569;DHT22;5840;46.894;15.542;2022-07-18T04:04:06;15.20;99.90
11569;DHT22;5840;46.894;15.542;2022-07-18T04:06:33;15.20;99.90
11569;DHT22;5840;46.894;15.542;2022-07-18T04:09:00;15.30;99.90
11569;DHT22;5840;46.894;15.542;2022-07-18T04:11:27;15.30;99.90
11569;DHT22;5840;46.894;15.542;2022-07-18T04:13:55;15.30;99.90
11569;DHT22;5840;46.894;15.542;2022-07-18T04:16:22;15.30;99.90
11569;DHT22;5840;46.894;15.542;2022-07-18T04:18:49;15.30;99.90
11569;DHT22;5840;46.894;15.542;2022-07-18T04:21:16;15.30;99.90
11569;DHT22;5840;46.894;15.542;2022-07-18T04:23:43;15.30;99.90
11569;DHT22;5840;46.894;15.542;2022-07-18T04:26:10;15.30;99.90
11569;DHT22;5840;46.894;15.542;2022-07-18T04:28:37;15.30;99.90
11569;DHT22;5840;46.894;15.542;2022-07-18T04:31:06;15.30;99.90
11569;DHT22;5840;46.894;15.542;2022-07-18T04:33:33;15.40;99.90
11569;DHT22;5840;46.894;15.542;2022-07-18T04:36:00;15.40;99.90
11569;DHT22;5840;46.894;15.542;2022-07-18T04:38:27;15.40;99.90
11569;DHT22;5840;46.894;15.542;2022-07-18T04:40:56;15.40;99.90
11569;DHT22;5840;46.894;15.542;2022-07-18T04:43:23;15.40;99.90
11569;DHT22;5840;46.894;15.542;2022-07-18T04:45:50;15.40;99.90
11569;DHT22;5840;46.894;15.542;2022-07-18T04:48:18;15.40;99.90
11569;DHT22;5840;46.894;15.542;2022-07-18T04:50:45;15.50;99.90
11569;DHT22;5840;46.894;15.542;2022-07-18T04:53:12;15.50;99.90
11569;DHT22;5840;46.894;15.542;2022-07-18T04:55:39;15.50;99.90
11569;DHT22;5840;46.894;15.542;2022-07-18T04:58:06;15.60;99.90
11569;DHT22;5840;46.894;15.542;2022-07-18T05:00:33;15.60;99.90
11569;DHT22;5840;46.894;15.542;2022-07-18T05:03:01;15.70;99.90
11569;DHT22;5840;46.894;15.542;2022-07-18T05:05:29;15.80;99.90
11569;DHT22;5840;46.894;15.542;2022-07-18T05:07:56;15.90;99.90
11569;DHT22;5840;46.894;15.542;2022-07-18T05:10:23;15.90;99.90
11569;DHT22;5840;46.894;15.542;2022-07-18T05:12:52;16.00;99.90
11569;DHT22;5840;46.894;15.542;2022-07-18T05:15:21;16.00;99.90
11569;DHT22;5840;46.894;15.542;2022-07-18T05:17:48;16.10;99.90
11569;DHT22;5840;46.894;15.542;2022-07-18T05:20:17;16.20;99.90
11569;DHT22;5840;46.894;15.542;2022-07-18T05:22:45;16.30;99.90
11569;DHT22;5840;46.894;15.542;2022-07-18T05:25:13;16.40;99.90
11569;DHT22;5840;46.894;15.542;2022-07-18T05:27:41;16.50;99.90
11569;DHT22;5840;46.894;15.542;2022-07-18T05:30:10;16.50;99.90
11569;DHT22;5840;46.894;15.542;2022-07-18T05:32:38;16.60;99.90
11569;DHT22;5840;46.894;15.542;2022-07-18T05:35:06;16.70;99.90
11569;DHT22;5840;46.894;15.542;2022-07-18T05:37:34;16.80;99.90
11569;DHT22;5840;46.894;15.542;2022-07-18T05:40:06;16.90;99.90
11569;DHT22;5840;46.894;15.542;2022-07-18T05:42:34;17.00;99.90
11569;DHT22;5840;46.894;15.542;2022-07-18T05:45:01;17.10;99.90
11569;DHT22;5840;46.894;15.542;2022-07-18T05:47:28;17.20;99.90
11569;DHT22;5840;46.894;15.542;2022-07-18T05:49:55;17.30;99.90
11569;DHT22;5840;46.894;15.542;2022-07-18T05:52:22;17.40;99.90
11569;DHT22;5840;46.894;15.542;2022-07-18T05:54:49;17.50;99.90
11569;DHT22;5840;46.894;15.542;2022-07-18T05:57:17;17.60;99.90
11569;DHT22;5840;46.894;15.542;2022-07-18T05:59:44;17.70;99.90
11569;DHT22;5840;46.894;15.542;2022-07-18T06:02:11;17.90;99.90
11569;DHT22;5840;46.894;15.542;2022-07-18T06:04:38;18.00;99.90
11569;DHT22;5840;46.894;15.542;2022-07-18T06:07:05;18.10;99.90
11569;DHT22;5840;46.894;15.542;2022-07-18T06:09:32;18.30;99.90
11569;DHT22;5840;46.894;15.542;2022-07-18T06:12:00;18.50;99.90
11569;DHT22;5840;46.894;15.542;2022-07-18T06:14:29;18.50;99.90
11569;DHT22;5840;46.894;15.542;2022-07-18T06:16:57;18.60;99.90
11569;DHT22;5840;46.894;15.542;2022-07-18T06:19:24;18.70;99.90
11569;DHT22;5840;46.894;15.542;2022-07-18T06:21:51;18.80;99.90
11569;DHT22;5840;46.894;15.542;2022-07-18T06:24:18;18.90;99.90
11569;DHT22;5840;46.894;15.542;2022-07-18T06:26:45;19.10;99.90
11569;DHT22;5840;46.894;15.542;2022-07-18T06:29:12;19.20;99.90
11569;DHT22;5840;46.894;15.542;2022-07-18T06:31:40;19.30;99.90
11569;DHT22;5840;46.894;15.542;2022-07-18T06:34:07;19.50;99.90
11569;DHT22;5840;46.894;15.542;2022-07-18T06:36:34;19.60;99.90
11569;DHT22;5840;46.894;15.542;2022-07-18T06:39:02;19.70;99.90
11569;DHT22;5840;46.894;15.542;2022-07-18T06:41:34;19.90;99.90
11569;DHT22;5840;46.894;15.542;2022-07-18T06:44:01;20.00;99.90
11569;DHT22;5840;46.894;15.542;2022-07-18T06:46:28;20.20;99.90
11569;DHT22;5840;46.894;15.542;2022-07-18T06:48:56;20.30;99.90
11569;DHT22;5840;46.894;15.542;2022-07-18T06:51:23;20.40;99.90
11569;DHT22;5840;46.894;15.542;2022-07-18T06:53:50;20.50;99.90
11569;DHT22;5840;46.894;15.542;2022-07-18T06:56:17;20.70;99.90
11569;DHT22;5840;46.894;15.542;2022-07-18T06:58:44;21.00;99.90
11569;DHT22;5840;46.894;15.542;2022-07-18T07:01:14;21.30;99.90
11569;DHT22;5840;46.894;15.542;2022-07-18T07:03:41;21.60;99.90
11569;DHT22;5840;46.894;15.542;2022-07-18T07:06:09;21.80;99.90
11569;DHT22;5840;46.894;15.542;2022-07-18T07:08:36;22.10;99.90
11569;DHT22;5840;46.894;15.542;2022-07-18T07:11:04;22.30;99.90
11569;DHT22;5840;46.894;15.542;2022-07-18T07:13:31;22.40;99.90
11569;DHT22;5840;46.894;15.542;2022-07-18T07:15:58;22.50;99.90
11569;DHT22;5840;46.894;15.542;2022-07-18T07:18:25;22.60;99.90
11569;DHT22;5840;46.894;15.542;2022-07-18T07:20:52;22.70;99.90
11569;DHT22;5840;46.894;15.542;2022-07-18T07:23:20;22.80;99.90
11569;DHT22;5840;46.894;15.542;2022-07-18T07:25:47;23.00;99.90
11569;DHT22;5840;46.894;15.542;2022-07-18T07:28:14;23.20;99.90
11569;DHT22;5840;46.894;15.542;2022-07-18T07:30:41;23.40;99.90
11569;DHT22;5840;46.894;15.542;2022-07-18T07:33:08;23.60;99.90
11569;DHT22;5840;46.894;15.542;2022-07-18T07:35:35;23.80;99.90
11569;DHT22;5840;46.894;15.542;2022-07-18T07:38:02;23.90;99.90
11569;DHT22;5840;46.894;15.542;2022-07-18T07:40:30;23.90;99.90
11569;DHT22;5840;46.894;15.542;2022-07-18T07:43:08;23.90;99.90
11569;DHT22;5840;46.894;15.542;2022-07-18T07:45:35;23.90;99.90
11569;DHT22;5840;46.894;15.542;2022-07-18T07:48:03;24.10;99.90
11569;DHT22;5840;46.894;15.542;2022-07-18T07:50:30;24.30;99.90
11569;DHT22;5840;46.894;15.542;2022-07-18T07:52:58;24.40;99.90
11569;DHT22;5840;46.894;15.542;2022-07-18T07:55:25;24.50;99.90
11569;DHT22;5840;46.894;15.542;2022-07-18T07:57:55;24.60;99.90
11569;DHT22;5840;46.894;15.542;2022-07-18T08:00:22;24.70;99.90
11569;DHT22;5840;46.894;15.542;2022-07-18T08:02:51;24.70;99.80
11569;DHT22;5840;46.894;15.542;2022-07-18T08:05:18;24.80;99.50
11569;DHT22;5840;46.894;15.542;2022-07-18T08:07:45;24.90;99.80
11569;DHT22;5840;46.894;15.542;2022-07-18T08:10:12;25.00;99.90
11569;DHT22;5840;46.894;15.542;2022-07-18T08:12:39;25.20;98.60
11569;DHT22;5840;46.894;15.542;2022-07-18T08:15:08;25.20;99.90
11569;DHT22;5840;46.894;15.542;2022-07-18T08:17:36;25.30;98.20
11569;DHT22;5840;46.894;15.542;2022-07-18T08:20:04;25.40;98.30
11569;DHT22;5840;46.894;15.542;2022-07-18T08:22:31;25.50;98.90
11569;DHT22;5840;46.894;15.542;2022-07-18T08:24:58;25.60;97.80
11569;DHT22;5840;46.894;15.542;2022-07-18T08:27:25;25.70;99.50
11569;DHT22;5840;46.894;15.542;2022-07-18T08:29:52;25.90;98.30
11569;DHT22;5840;46.894;15.542;2022-07-18T08:32:20;25.90;96.10
11569;DHT22;5840;46.894;15.542;2022-07-18T08:34:47;25.90;96.90
11569;DHT22;5840;46.894;15.542;2022-07-18T08:37:15;26.00;95.60
11569;DHT22;5840;46.894;15.542;2022-07-18T08:39:42;26.10;97.70
11569;DHT22;5840;46.894;15.542;2022-07-18T08:42:10;26.30;95.70
11569;DHT22;5840;46.894;15.542;2022-07-18T08:44:38;26.50;99.00
11569;DHT22;5840;46.894;15.542;2022-07-18T08:47:06;26.40;94.90
11569;DHT22;5840;46.894;15.542;2022-07-18T08:49:36;26.60;95.50
11569;DHT22;5840;46.894;15.542;2022-07-18T08:52:05;26.80;94.50
11569;DHT22;5840;46.894;15.542;2022-07-18T08:54:32;26.80;93.20
11569;DHT22;5840;46.894;15.542;2022-07-18T08:56:59;27.00;93.70
11569;DHT22;5840;46.894;15.542;2022-07-18T08:59:26;27.00;92.90
11569;DHT22;5840;46.894;15.542;2022-07-18T09:01:53;27.20;94.50
11569;DHT22;5840;46.894;15.542;2022-07-18T09:04:33;27.30;93.30
11569;DHT22;5840;46.894;15.542;2022-07-18T09:07:02;27.40;91.60
11569;DHT22;5840;46.894;15.542;2022-07-18T09:09:30;27.40;90.20
11569;DHT22;5840;46.894;15.542;2022-07-18T09:12:00;27.60;92.30
11569;DHT22;5840;46.894;15.542;2022-07-18T09:14:33;27.60;91.00
11569;DHT22;5840;46.894;15.542;2022-07-18T09:17:03;27.60;90.90
11569;DHT22;5840;46.894;15.542;2022-07-18T09:19:30;27.70;92.30
11569;DHT22;5840;46.894;15.542;2022-07-18T09:22:16;27.80;89.10
11569;DHT22;5840;46.894;15.542;2022-07-18T09:24:57;27.80;86.30
11569;DHT22;5840;46.894;15.542;2022-07-18T09:27:36;27.90;89.00
11569;DHT22;5840;46.894;15.542;2022-07-18T09:30:22;27.90;91.10
11569;DHT22;5840;46.894;15.542;2022-07-18T09:32:51;28.10;90.50
11569;DHT22;5840;46.894;15.542;2022-07-18T09:35:21;28.20;90.40
11569;DHT22;5840;46.894;15.542;2022-07-18T09:37:55;28.20;86.50
11569;DHT22;5840;46.894;15.542;2022-07-18T09:40:24;28.40;90.80
11569;DHT22;5840;46.894;15.542;2022-07-18T09:42:52;28.60;90.40
11569;DHT22;5840;46.894;15.542;2022-07-18T09:45:24;28.60;87.00
11569;DHT22;5840;46.894;15.542;2022-07-18T09:47:54;28.60;86.90
11569;DHT22;5840;46.894;15.542;2022-07-18T09:50:28;28.60;83.00
11569;DHT22;5840;46.894;15.542;2022-07-18T09:53:06;28.70;85.30
11569;DHT22;5840;46.894;15.542;2022-07-18T09:55:33;28.70;88.70
11569;DHT22;5840;46.894;15.542;2022-07-18T09:58:03;28.80;86.80
11569;DHT22;5840;46.894;15.542;2022-07-18T10:00:33;28.80;80.70
11569;DHT22;5840;46.894;15.542;2022-07-18T10:03:02;29.00;81.40
11569;DHT22;5840;46.894;15.542;2022-07-18T10:05:32;29.10;86.20
11569;DHT22;5840;46.894;15.542;2022-07-18T10:08:02;29.00;86.60
11569;DHT22;5840;46.894;15.542;2022-07-18T10:10:30;29.20;86.00
11569;DHT22;5840;46.894;15.542;2022-07-18T10:13:00;29.50;88.80
11569;DHT22;5840;46.894;15.542;2022-07-18T10:15:29;29.40;79.50
11569;DHT22;5840;46.894;15.542;2022-07-18T10:17:57;29.40;82.40
11569;DHT22;5840;46.894;15.542;2022-07-18T10:20:30;29.40;73.80
11569;DHT22;5840;46.894;15.542;2022-07-18T10:23:06;29.30;74.40
11569;DHT22;5840;46.894;15.542;2022-07-18T10:25:34;29.30;76.00
11569;DHT22;5840;46.894;15.542;2022-07-18T10:28:08;29.40;81.80
11569;DHT22;5840;46.894;15.542;2022-07-18T10:30:42;29.30;74.90
11569;DHT22;5840;46.894;15.542;2022-07-18T10:33:38;29.30;82.40
11569;DHT22;5840;46.894;15.542;2022-07-18T10:36:08;29.50;82.80
11569;DHT22;5840;46.894;15.542;2022-07-18T10:38:37;29.40;81.60
11569;DHT22;5840;46.894;15.542;2022-07-18T10:41:12;29.50;80.20
11569;DHT22;5840;46.894;15.542;2022-07-18T10:43:41;29.50;78.50
11569;DHT22;5840;46.894;15.542;2022-07-18T10:46:10;29.50;84.90
11569;DHT22;5840;46.894;15.542;2022-07-18T10:48:56;29.60;80.20
11569;DHT22;5840;46.894;15.542;2022-07-18T10:51:32;29.60;81.90
11569;DHT22;5840;46.894;15.542;2022-07-18T10:54:11;29.80;80.80
11569;DHT22;5840;46.894;15.542;2022-07-18T10:57:06;29.80;76.60
11569;DHT22;5840;46.894;15.542;2022-07-18T10:59:34;29.90;76.50
11569;DHT22;5840;46.894;15.542;2022-07-18T11:02:05;29.80;79.50
11569;DHT22;5840;46.894;15.542;2022-07-18T11:04:39;29.30;76.80
11569;DHT22;5840;46.894;15.542;2022-07-18T11:07:10;29.50;82.90
11569;DHT22;5840;46.894;15.542;2022-07-18T11:09:42;29.50;83.30
11569;DHT22;5840;46.894;15.542;2022-07-18T11:12:20;29.50;83.30
11569;DHT22;5840;46.894;15.542;2022-07-18T11:15:17;29.60;78.50
11569;DHT22;5840;46.894;15.542;2022-07-18T11:17:54;29.60;75.40
11569;DHT22;5840;46.894;15.542;2022-07-18T11:20:27;29.70;82.30
11569;DHT22;5840;46.894;15.542;2022-07-18T11:22:54;29.80;78.60
11569;DHT22;5840;46.894;15.542;2022-07-18T11:25:25;29.90;80.80
11569;DHT22;5840;46.894;15.542;2022-07-18T11:27:53;30.10;80.00
11569;DHT22;5840;46.894;15.542;2022-07-18T11:30:22;30.20;77.60
11569;DHT22;5840;46.894;15.542;2022-07-18T11:32:49;30.20;75.40
11569;DHT22;5840;46.894;15.542;2022-07-18T11:35:21;30.10;76.10
11569;DHT22;5840;46.894;15.542;2022-07-18T11:37:49;30.20;78.40
11569;DHT22;5840;46.894;15.542;2022-07-18T11:40:17;30.30;74.30
11569;DHT22;5840;46.894;15.542;2022-07-18T11:42:45;30.30;78.80
11569;DHT22;5840;46.894;15.542;2022-07-18T11:45:15;30.20;76.30
11569;DHT22;5840;46.894;15.542;2022-07-18T11:47:46;30.20;73.20
11569;DHT22;5840;46.894;15.542;2022-07-18T11:50:14;30.30;76.80
11569;DHT22;5840;46.894;15.542;2022-07-18T11:52:43;30.30;76.90
11569;DHT22;5840;46.894;15.542;2022-07-18T11:55:11;30.50;79.00
11569;DHT22;5840;46.894;15.542;2022-07-18T11:57:39;30.50;73.20
11569;DHT22;5840;46.894;15.542;2022-07-18T12:00:19;30.40;69.40
11569;DHT22;5840;46.894;15.542;2022-07-18T12:02:46;30.40;64.40
11569;DHT22;5840;46.894;15.542;2022-07-18T12:05:13;30.30;66.80
11569;DHT22;5840;46.894;15.542;2022-07-18T12:07:40;30.50;69.80
11569;DHT22;5840;46.894;15.542;2022-07-18T12:10:25;30.50;66.80
11569;DHT22;5840;46.894;15.542;2022-07-18T12:12:53;30.50;65.40
11569;DHT22;5840;46.894;15.542;2022-07-18T12:15:21;30.50;69.30
11569;DHT22;5840;46.894;15.542;2022-07-18T12:17:48;30.50;64.60
11569;DHT22;5840;46.894;15.542;2022-07-18T12:20:20;30.70;73.80
11569;DHT22;5840;46.894;15.542;2022-07-18T12:23:04;30.60;63.20
11569;DHT22;5840;46.894;15.542;2022-07-18T12:25:55;30.70;71.70
11569;DHT22;5840;46.894;15.542;2022-07-18T12:28:25;30.80;70.20
11569;DHT22;5840;46.894;15.542;2022-07-18T12:30:54;30.70;66.30
11569;DHT22;5840;46.894;15.542;2022-07-18T12:33:21;30.70;70.60
11569;DHT22;5840;46.894;15.542;2022-07-18T12:35:55;30.60;73.20
11569;DHT22;5840;46.894;15.542;2022-07-18T12:38:22;30.50;64.40
11569;DHT22;5840;46.894;15.542;2022-07-18T12:40:51;30.30;73.80
11569;DHT22;5840;46.894;15.542;2022-07-18T12:43:24;30.30;71.30
11569;DHT22;5840;46.894;15.542;2022-07-18T12:45:54;30.40;70.30
11569;DHT22;5840;46.894;15.542;2022-07-18T12:48:21;30.40;69.40
11569;DHT22;5840;46.894;15.542;2022-07-18T12:50:56;30.50;68.00
11569;DHT22;5840;46.894;15.542;2022-07-18T12:53:25;30.50;67.40
11569;DHT22;5840;46.894;15.542;2022-07-18T12:55:52;30.40;67.90
11569;DHT22;5840;46.894;15.542;2022-07-18T12:58:20;30.60;69.70
11569;DHT22;5840;46.894;15.542;2022-07-18T13:00:47;30.50;67.30
11569;DHT22;5840;46.894;15.542;2022-07-18T13:03:16;30.40;65.10
11569;DHT22;5840;46.894;15.542;2022-07-18T13:05:42;30.60;66.70
11569;DHT22;5840;46.894;15.542;2022-07-18T13:08:09;30.60;66.70
11569;DHT22;5840;46.894;15.542;2022-07-18T13:10:38;30.50;68.40
11569;DHT22;5840;46.894;15.542;2022-07-18T13:13:06;30.60;68.20
11569;DHT22;5840;46.894;15.542;2022-07-18T13:15:34;30.70;66.80
11569;DHT22;5840;46.894;15.542;2022-07-18T13:18:02;30.70;67.40
11569;DHT22;5840;46.894;15.542;2022-07-18T13:20:31;30.90;69.60
11569;DHT22;5840;46.894;15.542;2022-07-18T13:22:58;30.80;67.30
11569;DHT22;5840;46.894;15.542;2022-07-18T13:25:27;30.80;63.70
11569;DHT22;5840;46.894;15.542;2022-07-18T13:27:54;30.70;62.80
11569;DHT22;5840;46.894;15.542;2022-07-18T13:30:21;30.60;64.40
11569;DHT22;5840;46.894;15.542;2022-07-18T13:32:48;30.60;65.60
11569;DHT22;5840;46.894;15.542;2022-07-18T13:35:15;30.40;67.00
11569;DHT22;5840;46.894;15.542;2022-07-18T13:37:44;30.30;65.20
11569;DHT22;5840;46.894;15.542;2022-07-18T13:40:12;30.30;66.10
11569;DHT22;5840;46.894;15.542;2022-07-18T13:42:41;30.30;66.80
11569;DHT22;5840;46.894;15.542;2022-07-18T13:45:08;30.30;64.80
11569;DHT22;5840;46.894;15.542;2022-07-18T13:47:35;30.40;63.40
11569;DHT22;5840;46.894;15.542;2022-07-18T13:50:03;30.40;67.20
11569;DHT22;5840;46.894;15.542;2022-07-18T13:52:31;30.20;59.70
11569;DHT22;5840;46.894;15.542;2022-07-18T13:55:00;30.10;61.10
11569;DHT22;5840;46.894;15.542;2022-07-18T13:57:27;30.00;61.30
11569;DHT22;5840;46.894;15.542;2022-07-18T13:59:54;30.20;65.20
11569;DHT22;5840;46.894;15.542;2022-07-18T14:02:21;30.30;65.10
11569;DHT22;5840;46.894;15.542;2022-07-18T14:04:47;30.40;67.20
11569;DHT22;5840;46.894;15.542;2022-07-18T14:07:14;30.40;62.70
11569;DHT22;5840;46.894;15.542;2022-07-18T14:09:43;30.40;67.30
11569;DHT22;5840;46.894;15.542;2022-07-18T14:12:11;30.30;66.60
11569;DHT22;5840;46.894;15.542;2022-07-18T14:14:38;30.20;66.30
11569;DHT22;5840;46.894;15.542;2022-07-18T14:17:05;30.00;65.60
11569;DHT22;5840;46.894;15.542;2022-07-18T14:19:32;29.90;66.30
11569;DHT22;5840;46.894;15.542;2022-07-18T14:22:02;29.90;67.70
11569;DHT22;5840;46.894;15.542;2022-07-18T14:24:29;29.90;66.60
11569;DHT22;5840;46.894;15.542;2022-07-18T14:26:56;29.90;68.30
11569;DHT22;5840;46.894;15.542;2022-07-18T14:29:24;29.90;60.90
11569;DHT22;5840;46.894;15.542;2022-07-18T14:31:51;29.70;60.70
11569;DHT22;5840;46.894;15.542;2022-07-18T14:34:18;29.70;62.60
11569;DHT22;5840;46.894;15.542;2022-07-18T14:36:45;29.70;65.90
11569;DHT22;5840;46.894;15.542;2022-07-18T14:39:12;29.60;66.30
11569;DHT22;5840;46.894;15.542;2022-07-18T14:41:39;29.50;65.80
11569;DHT22;5840;46.894;15.542;2022-07-18T14:44:06;29.40;66.80
11569;DHT22;5840;46.894;15.542;2022-07-18T14:46:34;29.40;67.40
11569;DHT22;5840;46.894;15.542;2022-07-18T14:49:01;29.30;66.10
11569;DHT22;5840;46.894;15.542;2022-07-18T14:51:28;29.30;68.50
11569;DHT22;5840;46.894;15.542;2022-07-18T14:53:55;29.20;65.20
11569;DHT22;5840;46.894;15.542;2022-07-18T14:56:22;29.20;65.60
11569;DHT22;5840;46.894;15.542;2022-07-18T14:58:51;29.20;66.20
11569;DHT22;5840;46.894;15.542;2022-07-18T15:01:18;29.20;67.00
11569;DHT22;5840;46.894;15.542;2022-07-18T15:03:47;29.10;66.40
11569;DHT22;5840;46.894;15.542;2022-07-18T15:06:14;29.10;65.30
11569;DHT22;5840;46.894;15.542;2022-07-18T15:08:41;29.00;66.30
11569;DHT22;5840;46.894;15.542;2022-07-18T15:11:07;28.90;67.20
11569;DHT22;5840;46.894;15.542;2022-07-18T15:13:34;28.80;68.20
11569;DHT22;5840;46.894;15.542;2022-07-18T15:16:01;28.60;66.00
11569;DHT22;5840;46.894;15.542;2022-07-18T15:18:28;28.50;68.00
11569;DHT22;5840;46.894;15.542;2022-07-18T15:20:57;28.40;67.60
11569;DHT22;5840;46.894;15.542;2022-07-18T15:23:23;28.30;69.00
11569;DHT22;5840;46.894;15.542;2022-07-18T15:25:51;28.20;64.00
11569;DHT22;5840;46.894;15.542;2022-07-18T15:28:18;28.20;65.40
11569;DHT22;5840;46.894;15.542;2022-07-18T15:30:47;28.30;67.90
11569;DHT22;5840;46.894;15.542;2022-07-18T15:33:14;28.30;70.30
11569;DHT22;5840;46.894;15.542;2022-07-18T15:35:41;28.30;67.70
11569;DHT22;5840;46.894;15.542;2022-07-18T15:38:10;28.30;67.50